Time;durP1;ratioP1;P1;durP2;ratioP2;P2;SDS_P1;SDS_P2;PMS_P1;PMS_P2;Temp;Humidity;BMP_temperature;BMP_pressure;BME280_temperature;BME280_humidity;BME280_pressure;Samples;Min_cycle;Max_cycle;Signal;HPM_P1;HPM_P2
2023/05/25 00:01:33;;;;;;;2.43;1.40;;;22.40;78.20;;;;;;4998005;28;20827;-48
2023/05/25 00:04:01;;;;;;;1.43;1.00;;;22.40;78.20;;;;;;4999372;28;20496;-47
2023/05/25 00:06:28;;;;;;;1.60;1.00;;;22.50;78.30;;;;;;5007545;28;20483;-47
2023/05/25 00:08:56;;;;;;;1.63;1.00;;;22.40;78.40;;;;;;5005829;28;20972;-49
2023/05/25 00:11:23;;;;;;;2.10;1.47;;;22.40;78.40;;;;;;5000482;28;20472;-49
2023/05/25 00:13:49;;;;;;;1.30;1.10;;;22.40;78.50;;;;;;4997998;28;20463;-48
2023/05/25 00:16:17;;;;;;;2.67;1.13;;;22.40;78.50;;;;;;5006145;28;20464;-49
2023/05/25 00:18:47;;;;;;;1.93;1.20;;;22.40;78.40;;;;;;5001683;28;20488;-48
2023/05/25 00:21:14;;;;;;;1.40;1.10;;;22.30;78.40;;;;;;4993043;28;20521;-48
2023/05/25 00:23:41;;;;;;;1.37;1.17;;;22.30;78.40;;;;;;5000018;28;20487;-48
2023/05/25 00:26:07;;;;;;;1.73;1.20;;;22.30;78.30;;;;;;5001230;28;20511;-50
2023/05/25 00:28:34;;;;;;;1.00;0.90;;;22.30;78.50;;;;;;5001669;28;20464;-48
2023/05/25 00:31:01;;;;;;;1.23;0.90;;;22.30;78.50;;;;;;5005742;28;20467;-49
2023/05/25 00:33:29;;;;;;;1.60;1.10;;;22.30;78.50;;;;;;4991812;28;20464;-51
2023/05/25 00:35:56;;;;;;;1.23;1.13;;;22.30;78.50;;;;;;4999563;28;20464;-48
2023/05/25 00:38:22;;;;;;;1.43;1.10;;;22.30;78.50;;;;;;4998888;28;20480;-49
2023/05/25 00:40:54;;;;;;;1.93;0.90;;;22.30;78.50;;;;;;4993253;28;20859;-50
2023/05/25 00:43:21;;;;;;;1.40;1.10;;;22.30;78.50;;;;;;4990103;28;20464;-50
2023/05/25 00:45:49;;;;;;;1.60;1.20;;;22.30;78.50;;;;;;4988438;28;20464;-51
2023/05/25 00:48:16;;;;;;;1.37;1.17;;;22.20;78.40;;;;;;5001333;28;20562;-49
2023/05/25 00:50:44;;;;;;;1.43;1.33;;;22.20;78.50;;;;;;4996554;28;20452;-48
2023/05/25 00:53:12;;;;;;;1.93;1.40;;;22.20;78.50;;;;;;4996250;28;20464;-47
2023/05/25 00:55:44;;;;;;;1.37;1.03;;;22.20;78.50;;;;;;5008576;28;21308;-46
2023/05/25 00:58:13;;;;;;;1.20;1.10;;;22.20;78.50;;;;;;5005639;28;20896;-50
2023/05/25 01:00:42;;;;;;;2.00;1.20;;;22.20;78.50;;;;;;5004380;28;20452;-47
2023/05/25 01:03:16;;;;;;;1.33;1.03;;;22.20;78.50;;;;;;5007274;28;20542;-47
2023/05/25 01:05:47;;;;;;;1.60;1.20;;;22.20;78.50;;;;;;5009864;28;20843;-51
2023/05/25 01:08:16;;;;;;;2.40;0.97;;;22.20;78.50;;;;;;5006111;28;20813;-49
2023/05/25 01:10:45;;;;;;;1.40;1.23;;;22.20;78.60;;;;;;5003676;28;20471;-48
2023/05/25 01:13:14;;;;;;;1.53;1.13;;;22.20;78.60;;;;;;5005322;28;20502;-50
2023/05/25 01:15:41;;;;;;;1.10;1.00;;;22.10;78.50;;;;;;5005400;28;20460;-49
2023/05/25 01:18:08;;;;;;;1.40;1.10;;;22.20;78.60;;;;;;5004376;28;20484;-51
2023/05/25 01:20:35;;;;;;;1.47;1.20;;;22.20;78.60;;;;;;5008490;28;20747;-51
2023/05/25 01:23:12;;;;;;;1.30;1.00;;;22.10;78.60;;;;;;5008891;28;20468;-47
2023/05/25 01:25:45;;;;;;;1.30;1.20;;;22.10;78.60;;;;;;5004374;28;20291;-50
2023/05/25 01:28:17;;;;;;;1.97;1.40;;;22.10;78.60;;;;;;5002602;28;20467;-48
2023/05/25 01:30:46;;;;;;;1.30;1.10;;;22.10;78.60;;;;;;5007425;28;20467;-46
2023/05/25 01:33:14;;;;;;;1.33;1.00;;;22.10;78.70;;;;;;4998381;28;20479;-48
2023/05/25 01:35:41;;;;;;;1.30;1.00;;;22.10;78.70;;;;;;5008515;28;20990;-49
2023/05/25 01:38:10;;;;;;;1.37;1.10;;;22.10;78.80;;;;;;5006782;28;20220;-50
2023/05/25 01:40:36;;;;;;;1.15;1.02;;;22.00;78.60;;;;;;5007716;28;20524;-48
2023/05/25 01:43:03;;;;;;;1.20;1.07;;;22.00;78.60;;;;;;5000945;28;20580;-48
2023/05/25 01:45:31;;;;;;;1.40;1.00;;;22.00;78.70;;;;;;5002687;28;20863;-48
2023/05/25 01:48:06;;;;;;;1.90;1.17;;;22.00;78.70;;;;;;4993524;28;20833;-49
2023/05/25 01:50:41;;;;;;;2.37;1.20;;;22.00;78.70;;;;;;5005128;28;20452;-48
2023/05/25 01:53:12;;;;;;;1.42;1.00;;;22.00;78.80;;;;;;5007297;28;20468;-49
2023/05/25 01:55:46;;;;;;;1.60;1.10;;;22.00;78.80;;;;;;5004133;28;20292;-51
2023/05/25 01:58:15;;;;;;;1.50;1.30;;;22.00;78.90;;;;;;5000387;28;20520;-48
2023/05/25 02:00:42;;;;;;;1.40;1.10;;;21.90;78.70;;;;;;5004670;28;20683;-48
2023/05/25 02:03:10;;;;;;;1.43;1.17;;;22.00;78.80;;;;;;5003732;28;20197;-49
2023/05/25 02:05:37;;;;;;;1.20;1.00;;;22.00;78.80;;;;;;4998775;28;20463;-48
2023/05/25 02:08:04;;;;;;;1.10;1.00;;;22.00;78.90;;;;;;5001484;28;20473;-49
2023/05/25 02:10:32;;;;;;;1.27;1.10;;;21.90;78.70;;;;;;5004352;28;20990;-48
2023/05/25 02:12:59;;;;;;;1.50;1.13;;;22.00;79.00;;;;;;5006272;28;20211;-49
2023/05/25 02:15:31;;;;;;;1.27;1.03;;;21.90;78.80;;;;;;5003349;28;20471;-47
2023/05/25 02:17:58;;;;;;;1.20;1.10;;;21.90;78.80;;;;;;5002292;28;20479;-50
2023/05/25 02:20:25;;;;;;;1.27;1.17;;;21.90;78.80;;;;;;5008276;28;20468;-49
2023/05/25 02:22:52;;;;;;;1.20;0.90;;;21.90;78.80;;;;;;5006213;28;20652;-50
2023/05/25 02:25:18;;;;;;;1.30;0.90;;;21.90;78.80;;;;;;5002665;28;20212;-49
2023/05/25 02:27:46;;;;;;;1.20;1.10;;;21.90;78.80;;;;;;5002257;28;20628;-49
2023/05/25 02:30:14;;;;;;;1.50;1.10;;;21.90;78.90;;;;;;5003266;28;20506;-50
2023/05/25 02:32:40;;;;;;;1.20;1.10;;;21.90;78.80;;;;;;5003281;28;20451;-48
2023/05/25 02:35:07;;;;;;;1.33;1.05;;;21.90;78.80;;;;;;5003610;28;20251;-47
2023/05/25 02:37:34;;;;;;;1.23;0.90;;;21.80;78.80;;;;;;5006524;28;20279;-49
2023/05/25 02:40:01;;;;;;;1.20;1.00;;;21.80;78.80;;;;;;5005355;28;20494;-48
2023/05/25 02:42:27;;;;;;;1.30;1.08;;;21.80;78.80;;;;;;5002568;28;20208;-48
2023/05/25 02:44:55;;;;;;;1.40;1.20;;;21.80;78.80;;;;;;5004131;28;20208;-48
2023/05/25 02:47:22;;;;;;;1.03;0.90;;;21.80;78.80;;;;;;4998650;28;20610;-51
2023/05/25 02:49:49;;;;;;;1.37;1.00;;;21.80;78.90;;;;;;5008006;28;20955;-48
2023/05/25 02:52:16;;;;;;;1.80;1.30;;;21.80;78.90;;;;;;5001611;28;20455;-48
2023/05/25 02:54:43;;;;;;;2.20;1.15;;;21.80;78.80;;;;;;5002718;28;20263;-48
2023/05/25 02:57:10;;;;;;;1.40;1.30;;;21.80;78.90;;;;;;4997723;28;20198;-48
2023/05/25 02:59:36;;;;;;;3.03;1.50;;;21.80;79.30;;;;;;4992198;28;20312;-47
2023/05/25 03:02:05;;;;;;;1.60;1.10;;;21.70;78.90;;;;;;4998073;28;20887;-49
2023/05/25 03:04:33;;;;;;;1.10;0.90;;;21.80;78.90;;;;;;4999145;28;20237;-50
2023/05/25 03:06:59;;;;;;;1.10;0.95;;;21.70;78.90;;;;;;4992341;28;20510;-48
2023/05/25 03:09:26;;;;;;;1.10;0.90;;;21.70;79.70;;;;;;5001149;28;20565;-48
2023/05/25 03:11:53;;;;;;;1.50;1.27;;;21.70;78.90;;;;;;5002459;28;20205;-49
2023/05/25 03:14:20;;;;;;;1.20;1.03;;;21.70;78.90;;;;;;5000884;28;20459;-49
2023/05/25 03:16:46;;;;;;;1.30;1.20;;;21.70;78.90;;;;;;5004233;28;20875;-51
2023/05/25 03:19:15;;;;;;;1.20;1.00;;;21.70;78.90;;;;;;5002100;28;20290;-53
2023/05/25 03:21:41;;;;;;;1.10;1.00;;;21.70;78.90;;;;;;5001242;28;20456;-48
2023/05/25 03:24:08;;;;;;;1.40;1.30;;;21.70;78.90;;;;;;4998731;28;20648;-48
2023/05/25 03:26:35;;;;;;;1.30;1.20;;;21.70;78.90;;;;;;4993871;28;20601;-51
2023/05/25 03:29:01;;;;;;;1.30;1.00;;;21.70;79.00;;;;;;4995334;28;20215;-50
2023/05/25 03:31:28;;;;;;;1.10;0.90;;;21.70;79.00;;;;;;5002927;28;20208;-50
2023/05/25 03:33:55;;;;;;;1.73;1.10;;;21.70;78.90;;;;;;5008250;28;20204;-49
2023/05/25 03:36:26;;;;;;;1.17;0.93;;;21.70;79.00;;;;;;5001090;28;20464;-54
2023/05/25 03:38:53;;;;;;;1.48;1.20;;;21.60;78.90;;;;;;4999596;28;20223;-49
2023/05/25 03:41:19;;;;;;;1.20;1.00;;;21.60;78.90;;;;;;4999518;28;20197;-49
2023/05/25 03:43:46;;;;;;;1.30;1.10;;;21.60;79.00;;;;;;4998790;28;20836;-50
2023/05/25 03:46:13;;;;;;;1.10;1.00;;;21.60;79.00;;;;;;4997085;28;20464;-52
2023/05/25 03:48:39;;;;;;;1.20;1.10;;;21.60;79.00;;;;;;4997549;28;20197;-52
2023/05/25 03:51:06;;;;;;;1.70;1.50;;;21.60;78.90;;;;;;4991362;28;20201;-49
2023/05/25 03:53:34;;;;;;;1.10;1.00;;;21.60;79.00;;;;;;4996236;28;20460;-51
2023/05/25 03:56:01;;;;;;;1.40;1.30;;;21.60;78.90;;;;;;4997776;28;20204;-49
2023/05/25 03:58:27;;;;;;;1.48;1.15;;;21.60;78.90;;;;;;5000968;28;20192;-48
2023/05/25 04:00:55;;;;;;;1.10;0.93;;;21.60;79.00;;;;;;5003828;28;20197;-48
2023/05/25 04:03:21;;;;;;;1.90;1.20;;;21.60;79.00;;;;;;4995050;28;20464;-48
2023/05/25 04:05:48;;;;;;;1.20;1.00;;;21.60;79.00;;;;;;4992832;28;20202;-49
2023/05/25 04:08:16;;;;;;;1.23;1.02;;;21.50;78.80;;;;;;4993273;28;20464;-49
2023/05/25 04:10:44;;;;;;;1.30;1.00;;;21.60;79.00;;;;;;4994630;28;20205;-48
2023/05/25 04:13:11;;;;;;;1.52;1.30;;;21.60;79.00;;;;;;4991699;28;20288;-48
2023/05/25 04:15:38;;;;;;;1.30;1.10;;;21.50;78.90;;;;;;4996336;28;20194;-52
2023/05/25 04:18:05;;;;;;;1.23;1.08;;;21.50;79.00;;;;;;4998687;28;20204;-49
2023/05/25 04:20:32;;;;;;;2.00;1.25;;;21.50;78.90;;;;;;5004759;28;20224;-48
2023/05/25 04:22:59;;;;;;;1.30;1.10;;;21.50;78.90;;;;;;4995472;28;20201;-50
2023/05/25 04:25:25;;;;;;;1.52;1.00;;;21.50;78.90;;;;;;4996427;28;20196;-48
2023/05/25 04:27:55;;;;;;;1.30;1.10;;;21.50;78.90;;;;;;4989804;28;20669;-48
2023/05/25 04:30:22;;;;;;;1.20;1.03;;;21.50;78.90;;;;;;4996462;28;20292;-49
2023/05/25 04:32:49;;;;;;;1.30;1.08;;;21.50;78.80;;;;;;4993890;28;21006;-51
2023/05/25 04:35:19;;;;;;;1.30;1.05;;;21.50;79.00;;;;;;4999250;28;20732;-50
2023/05/25 04:37:47;;;;;;;1.55;1.00;;;21.50;79.00;;;;;;5004078;28;20204;-51
2023/05/25 04:40:14;;;;;;;1.20;1.00;;;21.50;78.90;;;;;;5001955;28;20217;-51
2023/05/25 04:42:40;;;;;;;1.30;1.00;;;21.50;78.90;;;;;;5000547;28;20204;-50
2023/05/25 04:45:10;;;;;;;1.30;1.00;;;21.50;78.90;;;;;;4995654;28;20209;-50
2023/05/25 04:47:39;;;;;;;1.30;1.17;;;21.50;79.00;;;;;;4992732;28;20606;-51
2023/05/25 04:50:07;;;;;;;1.70;1.10;;;21.50;78.90;;;;;;4994586;28;20284;-52
2023/05/25 04:52:34;;;;;;;1.20;1.02;;;21.50;78.90;;;;;;5000549;28;20463;-48
2023/05/25 04:55:01;;;;;;;1.15;0.93;;;21.50;79.00;;;;;;4999150;28;20255;-50
2023/05/25 04:57:29;;;;;;;1.42;1.00;;;21.40;78.80;;;;;;4995449;28;20200;-49
2023/05/25 04:59:56;;;;;;;1.30;0.90;;;21.40;78.90;;;;;;4999203;28;20219;-50
2023/05/25 05:02:24;;;;;;;1.10;0.85;;;21.40;78.80;;;;;;5002289;28;20561;-50
2023/05/25 05:04:52;;;;;;;1.30;1.10;;;21.40;78.80;;;;;;5001520;28;20197;-52
2023/05/25 05:07:19;;;;;;;1.33;1.20;;;21.50;78.90;;;;;;5000453;28;20725;-51
2023/05/25 05:09:46;;;;;;;1.00;0.80;;;21.40;78.90;;;;;;4997142;28;20279;-51
2023/05/25 05:12:12;;;;;;;1.10;0.90;;;21.40;78.80;;;;;;4991040;28;20205;-51
2023/05/25 05:14:39;;;;;;;1.25;1.00;;;21.40;78.90;;;;;;4996863;28;20481;-54
2023/05/25 05:17:06;;;;;;;1.30;1.05;;;21.40;78.90;;;;;;4999193;28;20197;-51
2023/05/25 05:19:34;;;;;;;1.30;1.20;;;21.40;78.90;;;;;;4999399;28;20217;-54
2023/05/25 05:22:00;;;;;;;1.73;1.27;;;21.40;79.00;;;;;;5000704;28;20196;-48
2023/05/25 05:24:27;;;;;;;1.55;1.00;;;21.40;79.20;;;;;;5002735;28;20498;-49
2023/05/25 05:26:54;;;;;;;1.20;0.90;;;21.40;79.20;;;;;;4995129;28;20676;-49
2023/05/25 05:29:21;;;;;;;1.20;1.10;;;21.40;79.10;;;;;;4996930;28;20307;-48
2023/05/25 05:31:47;;;;;;;1.90;1.15;;;21.40;79.20;;;;;;5004308;28;20623;-50
2023/05/25 05:34:14;;;;;;;1.10;1.00;;;21.40;80.00;;;;;;5006067;28;20213;-48
2023/05/25 05:36:42;;;;;;;2.35;1.00;;;21.40;79.30;;;;;;5006343;28;20546;-48
2023/05/25 05:39:09;;;;;;;1.30;1.00;;;21.50;79.40;;;;;;5006324;28;20224;-47
2023/05/25 05:41:35;;;;;;;1.35;1.10;;;21.50;79.30;;;;;;4998737;28;20196;-48
2023/05/25 05:44:02;;;;;;;1.40;1.25;;;21.50;79.40;;;;;;5002267;28;20204;-50
2023/05/25 05:46:29;;;;;;;1.30;1.10;;;21.50;79.30;;;;;;5003296;28;20219;-47
2023/05/25 05:48:55;;;;;;;1.52;1.10;;;21.50;79.40;;;;;;5007860;28;20556;-48
2023/05/25 05:51:22;;;;;;;3.03;1.08;;;21.50;79.30;;;;;;5007304;28;20204;-51
2023/05/25 05:53:50;;;;;;;1.52;1.42;;;21.50;79.30;;;;;;5008189;28;20255;-48
2023/05/25 05:56:18;;;;;;;1.55;1.20;;;21.50;79.20;;;;;;5005184;28;20205;-48
2023/05/25 05:58:46;;;;;;;1.30;1.15;;;21.60;79.40;;;;;;4992662;28;20564;-50
2023/05/25 06:01:12;;;;;;;1.40;1.17;;;21.60;79.40;;;;;;4998331;28;20199;-48
2023/05/25 06:03:39;;;;;;;1.10;1.00;;;21.50;79.40;;;;;;5007801;28;20208;-48
2023/05/25 06:06:06;;;;;;;1.20;1.00;;;21.50;79.30;;;;;;5003436;28;20231;-51
2023/05/25 06:08:33;;;;;;;1.30;1.00;;;21.60;79.50;;;;;;5001730;28;20485;-47
2023/05/25 06:11:01;;;;;;;1.53;0.83;;;21.50;79.50;;;;;;4987244;28;20213;-49
2023/05/25 06:13:27;;;;;;;1.15;0.90;;;21.60;79.50;;;;;;4995309;28;20473;-47
2023/05/25 06:15:54;;;;;;;1.20;1.00;;;21.60;79.60;;;;;;4993034;28;20255;-47
2023/05/25 06:18:20;;;;;;;1.40;1.00;;;21.70;79.70;;;;;;4984359;28;20205;-52
2023/05/25 06:20:47;;;;;;;1.60;1.23;;;21.70;79.80;;;;;;4992659;28;20768;-48
2023/05/25 06:23:14;;;;;;;1.40;1.00;;;21.70;79.70;;;;;;4994095;28;20456;-50
2023/05/25 06:25:41;;;;;;;1.10;1.00;;;21.70;79.80;;;;;;4990448;28;20478;-49
2023/05/25 06:28:09;;;;;;;1.57;0.90;;;21.70;79.60;;;;;;4996179;28;20220;-52
2023/05/25 06:30:36;;;;;;;2.30;0.97;;;21.80;79.60;;;;;;4994505;28;21043;-48
2023/05/25 06:33:03;;;;;;;1.87;1.30;;;21.80;79.50;;;;;;5003036;28;20467;-49
2023/05/25 06:35:29;;;;;;;4.90;1.10;;;21.80;79.50;;;;;;5003847;28;20452;-52
2023/05/25 06:37:56;;;;;;;4.97;1.47;;;21.80;79.60;;;;;;4994701;28;20468;-50
2023/05/25 06:40:23;;;;;;;1.23;0.90;;;21.80;79.80;;;;;;5000079;28;20561;-48
2023/05/25 06:42:49;;;;;;;1.30;0.90;;;21.80;79.90;;;;;;4999183;28;20533;-52
2023/05/25 06:45:17;;;;;;;2.80;1.00;;;21.80;79.80;;;;;;4999021;28;20867;-50
2023/05/25 06:47:44;;;;;;;4.17;1.10;;;21.80;79.80;;;;;;4996913;28;20463;-49
2023/05/25 06:50:12;;;;;;;5.43;1.20;;;21.80;79.70;;;;;;4999402;28;20568;-48
2023/05/25 06:52:39;;;;;;;1.23;1.00;;;21.90;79.90;;;;;;4997841;28;20452;-48
2023/05/25 06:55:08;;;;;;;3.40;1.00;;;21.90;80.00;;;;;;5010446;28;20459;-52
2023/05/25 06:57:34;;;;;;;1.40;1.10;;;21.90;80.00;;;;;;5004525;28;20514;-50
2023/05/25 07:00:01;;;;;;;2.50;1.10;;;21.90;80.00;;;;;;5000213;28;20491;-51
2023/05/25 07:02:30;;;;;;;1.57;1.00;;;21.90;80.00;;;;;;5002454;28;20543;-49
2023/05/25 07:04:56;;;;;;;1.13;1.03;;;21.90;80.00;;;;;;5005240;28;20447;-52
2023/05/25 07:07:23;;;;;;;2.60;1.37;;;22.00;80.30;;;;;;5004879;28;20464;-47
2023/05/25 07:09:50;;;;;;;1.97;0.90;;;21.90;80.20;;;;;;5006467;28;20459;-46
2023/05/25 07:12:17;;;;;;;2.40;1.30;;;21.90;80.30;;;;;;5003012;28;20503;-47
2023/05/25 07:14:46;;;;;;;2.83;1.33;;;22.00;80.60;;;;;;5000907;28;20492;-49
2023/05/25 07:17:13;;;;;;;1.23;1.00;;;22.00;80.60;;;;;;5000725;28;20896;-51
2023/05/25 07:19:42;;;;;;;4.07;1.20;;;22.00;80.70;;;;;;5002063;28;20483;-47
2023/05/25 07:22:09;;;;;;;1.20;1.10;;;22.00;80.70;;;;;;4999722;28;20463;-53
2023/05/25 07:24:36;;;;;;;1.20;0.90;;;22.00;80.60;;;;;;5004482;28;20761;-56
2023/05/25 07:27:03;;;;;;;1.60;1.30;;;22.00;80.70;;;;;;5004317;28;20456;-51
2023/05/25 07:29:30;;;;;;;1.07;0.90;;;22.00;80.80;;;;;;5002548;28;20546;-53
2023/05/25 07:31:56;;;;;;;1.97;1.20;;;22.00;80.80;;;;;;4998897;28;20816;-56
2023/05/25 07:34:23;;;;;;;1.30;1.10;;;22.00;80.80;;;;;;5008260;28;20464;-54
2023/05/25 07:36:51;;;;;;;4.30;1.33;;;22.00;80.70;;;;;;5012416;28;20451;-52
2023/05/25 07:39:18;;;;;;;1.73;1.63;;;22.10;81.00;;;;;;5012342;28;20467;-54
2023/05/25 07:41:45;;;;;;;1.40;1.20;;;22.10;80.90;;;;;;5003669;28;20464;-48
2023/05/25 07:44:11;;;;;;;2.90;1.50;;;22.10;81.00;;;;;;5007321;28;20451;-46
2023/05/25 07:46:38;;;;;;;1.70;1.40;;;22.10;80.80;;;;;;5003770;28;20460;-47
2023/05/25 07:49:10;;;;;;;1.30;0.97;;;22.10;80.80;;;;;;5003535;28;20466;-48
2023/05/25 07:51:37;;;;;;;1.23;1.07;;;22.10;80.70;;;;;;5003624;28;20476;-47
2023/05/25 07:54:05;;;;;;;1.60;1.33;;;22.20;80.70;;;;;;5011561;28;20467;-47
2023/05/25 07:56:32;;;;;;;1.70;1.13;;;22.20;80.70;;;;;;5002526;28;20456;-47
2023/05/25 07:58:59;;;;;;;1.30;0.97;;;22.20;80.40;;;;;;5008619;28;20470;-48
2023/05/25 08:01:26;;;;;;;1.10;0.83;;;22.20;80.40;;;;;;5003860;28;20491;-48
2023/05/25 08:03:53;;;;;;;1.73;1.10;;;22.20;80.30;;;;;;5008037;28;20519;-46
2023/05/25 08:06:20;;;;;;;1.10;1.00;;;22.20;80.20;;;;;;5009267;28;20466;-47
2023/05/25 08:08:46;;;;;;;1.20;1.00;;;22.20;80.10;;;;;;5001536;28;20466;-47
2023/05/25 08:11:15;;;;;;;1.30;1.10;;;22.20;80.00;;;;;;4996992;28;20491;-49
2023/05/25 08:13:42;;;;;;;1.40;1.00;;;22.30;80.10;;;;;;4997611;28;20456;-48
2023/05/25 08:16:09;;;;;;;1.53;1.30;;;22.30;79.90;;;;;;4998917;28;20521;-48
2023/05/25 08:18:35;;;;;;;2.30;1.00;;;22.30;79.80;;;;;;4988524;28;20460;-47
2023/05/25 08:21:02;;;;;;;1.30;0.97;;;22.30;79.70;;;;;;4993179;28;20507;-48
2023/05/25 08:23:29;;;;;;;1.40;1.20;;;22.30;79.60;;;;;;4996129;28;20518;-49
2023/05/25 08:25:55;;;;;;;1.27;0.90;;;22.30;79.50;;;;;;4998918;28;20805;-49
2023/05/25 08:28:23;;;;;;;1.90;1.17;;;22.30;79.50;;;;;;4996576;28;20968;-50
2023/05/25 08:30:50;;;;;;;1.30;1.20;;;22.30;79.50;;;;;;4997728;28;20824;-48
2023/05/25 08:33:17;;;;;;;1.63;1.30;;;22.30;79.30;;;;;;4999753;28;20471;-52
2023/05/25 08:35:43;;;;;;;1.47;1.20;;;22.30;79.30;;;;;;4995776;28;20476;-48
2023/05/25 08:38:10;;;;;;;1.30;1.10;;;22.30;79.20;;;;;;4993724;28;20461;-47
2023/05/25 08:40:41;;;;;;;1.17;0.87;;;22.30;79.10;;;;;;4995220;28;20479;-48
2023/05/25 08:43:07;;;;;;;2.20;1.20;;;22.30;79.10;;;;;;4989832;28;20876;-49
2023/05/25 08:45:35;;;;;;;1.10;1.00;;;22.30;79.00;;;;;;4996112;28;20451;-46
2023/05/25 08:48:07;;;;;;;1.60;1.30;;;22.30;79.00;;;;;;4994307;28;20460;-49
2023/05/25 08:50:35;;;;;;;1.00;0.90;;;22.30;79.00;;;;;;5002230;28;20547;-47
2023/05/25 08:53:06;;;;;;;1.53;1.37;;;22.30;79.00;;;;;;4997365;28;20873;-48
2023/05/25 08:55:35;;;;;;;2.17;1.07;;;22.30;79.00;;;;;;4996997;28;20474;-49
2023/05/25 08:58:09;;;;;;;1.30;1.07;;;22.30;79.00;;;;;;5003254;28;20459;-50
2023/05/25 09:00:44;;;;;;;1.83;1.40;;;22.30;78.90;;;;;;4997470;28;20479;-47
2023/05/25 09:03:16;;;;;;;2.30;0.80;;;22.30;78.90;;;;;;4993409;28;20464;-47
2023/05/25 09:05:43;;;;;;;1.77;1.50;;;22.30;78.80;;;;;;4997018;28;20875;-51
2023/05/25 09:08:10;;;;;;;1.97;1.13;;;22.40;78.40;;;;;;4994985;28;20465;-48
2023/05/25 09:10:38;;;;;;;1.27;1.10;;;22.30;78.80;;;;;;4993984;28;20699;-46
2023/05/25 09:13:05;;;;;;;2.33;1.50;;;22.30;78.60;;;;;;4994052;28;20463;-46
2023/05/25 09:15:32;;;;;;;4.03;1.30;;;22.40;78.60;;;;;;4988645;28;20468;-53
2023/05/25 09:18:00;;;;;;;3.67;1.10;;;22.30;78.60;;;;;;4997954;28;20500;-49
2023/05/25 09:20:30;;;;;;;2.50;1.50;;;22.30;78.60;;;;;;4996787;28;20529;-50
2023/05/25 09:22:57;;;;;;;1.90;1.50;;;22.30;78.60;;;;;;4999203;28;20468;-52
2023/05/25 09:25:25;;;;;;;4.73;1.33;;;22.40;78.90;;;;;;4994879;28;20727;-54
2023/05/25 09:27:51;;;;;;;1.90;1.60;;;22.40;79.10;;;;;;4993907;28;20456;-55
2023/05/25 09:30:18;;;;;;;2.40;1.20;;;22.40;79.10;;;;;;4993832;28;21075;-55
2023/05/25 09:32:45;;;;;;;3.30;1.40;;;22.40;79.20;;;;;;5007691;28;20464;-48
2023/05/25 09:35:14;;;;;;;1.40;1.07;;;22.40;79.30;;;;;;5007787;28;21715;-50
2023/05/25 09:37:42;;;;;;;1.97;1.20;;;22.40;79.40;;;;;;5004963;28;20467;-48
2023/05/25 09:40:10;;;;;;;1.90;1.33;;;22.50;79.50;;;;;;4998637;28;20986;-46
2023/05/25 09:42:37;;;;;;;1.57;1.07;;;22.50;79.60;;;;;;4998733;28;20591;-46
2023/05/25 09:45:05;;;;;;;2.33;1.37;;;22.50;79.80;;;;;;4991477;28;22021;-48
2023/05/25 09:47:32;;;;;;;3.20;1.27;;;22.50;79.70;;;;;;4995006;28;20459;-46
2023/05/25 09:49:59;;;;;;;2.10;1.10;;;22.50;79.70;;;;;;4994962;28;20522;-47
2023/05/25 09:52:27;;;;;;;1.50;1.20;;;22.50;79.70;;;;;;4994935;28;20464;-47
2023/05/25 09:54:55;;;;;;;1.83;1.40;;;22.60;79.80;;;;;;4997585;28;21147;-45
2023/05/25 09:57:22;;;;;;;1.97;1.10;;;22.60;79.80;;;;;;4998001;28;20563;-47
2023/05/25 09:59:48;;;;;;;1.80;1.10;;;22.60;79.80;;;;;;4996151;28;20463;-55
2023/05/25 10:02:15;;;;;;;2.77;1.30;;;22.60;79.80;;;;;;4996098;28;20479;-51
2023/05/25 10:04:42;;;;;;;1.83;1.30;;;22.60;79.80;;;;;;4998493;28;20499;-49
2023/05/25 10:07:09;;;;;;;2.00;1.77;;;22.70;79.80;;;;;;4993029;28;20475;-52
2023/05/25 10:09:40;;;;;;;1.20;1.10;;;22.80;79.90;;;;;;4992761;28;21047;-49
2023/05/25 10:12:08;;;;;;;2.03;1.20;;;22.70;79.80;;;;;;4995323;28;20469;-49
2023/05/25 10:14:37;;;;;;;5.60;1.50;;;22.70;79.70;;;;;;4992987;28;21142;-50
2023/05/25 10:17:05;;;;;;;2.43;1.70;;;22.80;79.80;;;;;;4997576;28;20467;-47
2023/05/25 10:19:36;;;;;;;2.17;1.13;;;22.80;79.80;;;;;;4998202;28;20547;-46
2023/05/25 10:22:08;;;;;;;1.10;0.80;;;22.80;79.60;;;;;;4995859;28;20479;-51
2023/05/25 10:24:42;;;;;;;1.40;1.20;;;22.80;79.60;;;;;;4996322;28;20487;-46
2023/05/25 10:27:17;;;;;;;2.73;1.60;;;22.80;79.60;;;;;;4996110;28;20554;-48
2023/05/25 10:29:45;;;;;;;2.23;1.17;;;22.80;79.50;;;;;;5004866;28;20510;-47
2023/05/25 10:32:13;;;;;;;1.53;1.00;;;22.90;79.70;;;;;;4993842;28;20455;-52
2023/05/25 10:34:41;;;;;;;1.07;0.97;;;22.90;79.60;;;;;;4995046;28;20491;-44
2023/05/25 10:37:08;;;;;;;9.23;1.13;;;22.90;79.60;;;;;;5001279;28;20467;-45
2023/05/25 10:39:36;;;;;;;1.43;1.00;;;22.90;79.60;;;;;;5001851;28;20530;-48
2023/05/25 10:42:05;;;;;;;1.83;1.13;;;23.00;79.50;;;;;;5009777;28;20555;-48
2023/05/25 10:44:32;;;;;;;1.73;1.20;;;23.00;79.50;;;;;;5001060;28;20815;-48
2023/05/25 10:47:00;;;;;;;1.63;1.13;;;23.00;79.50;;;;;;5002157;28;20456;-48
2023/05/25 10:49:32;;;;;;;1.33;1.10;;;23.10;79.60;;;;;;5008443;28;20455;-46
2023/05/25 10:51:59;;;;;;;2.00;1.20;;;23.10;79.60;;;;;;5002770;28;20947;-47
2023/05/25 10:54:30;;;;;;;1.70;1.30;;;23.10;79.40;;;;;;5002378;28;20482;-49
2023/05/25 10:57:12;;;;;;;1.23;1.00;;;23.10;79.50;;;;;;4991707;28;20514;-44
2023/05/25 10:59:44;;;;;;;1.10;1.00;;;23.10;79.30;;;;;;4996950;28;20468;-44
2023/05/25 11:02:11;;;;;;;1.80;1.10;;;23.10;79.50;;;;;;4995841;28;20488;-47
2023/05/25 11:04:38;;;;;;;1.83;1.50;;;23.10;79.30;;;;;;5001268;28;20455;-46
2023/05/25 11:07:13;;;;;;;1.67;1.10;;;23.20;79.30;;;;;;5008261;28;20459;-47
2023/05/25 11:09:43;;;;;;;1.23;1.13;;;23.20;79.20;;;;;;5003419;28;23113;-46
2023/05/25 11:12:21;;;;;;;1.40;1.03;;;23.20;79.10;;;;;;5004785;28;20543;-50
2023/05/25 11:15:13;;;;;;;1.00;0.90;;;23.20;79.00;;;;;;5005626;28;20521;-50
2023/05/25 11:17:59;;;;;;;1.23;1.10;;;23.20;78.80;;;;;;5006485;28;20467;-47
2023/05/25 11:20:28;;;;;;;1.13;1.00;;;23.20;78.70;;;;;;4998719;28;20457;-47
2023/05/25 11:22:57;;;;;;;1.37;1.10;;;23.30;79.10;;;;;;5002626;28;20491;-49
2023/05/25 11:25:38;;;;;;;4.23;1.07;;;23.30;79.00;;;;;;5003275;28;20457;-48
2023/05/25 11:28:07;;;;;;;1.90;1.37;;;23.20;78.60;;;;;;5000304;28;20456;-45
2023/05/25 11:30:35;;;;;;;1.97;1.37;;;23.30;79.00;;;;;;5011750;28;20444;-52
2023/05/25 11:33:02;;;;;;;1.87;1.43;;;23.30;78.90;;;;;;5007818;28;20459;-52
2023/05/25 11:35:32;;;;;;;1.60;1.27;;;23.30;78.80;;;;;;5004487;28;20511;-51
2023/05/25 11:37:59;;;;;;;1.70;1.27;;;23.30;78.70;;;;;;5002016;28;21018;-49
2023/05/25 11:40:30;;;;;;;1.30;1.20;;;23.40;78.70;;;;;;5012174;28;20860;-45
2023/05/25 11:42:59;;;;;;;5.03;1.13;;;23.40;78.60;;;;;;5005486;28;20618;-46
2023/05/25 11:45:29;;;;;;;2.30;1.43;;;23.40;78.90;;;;;;5006684;28;20533;-46
2023/05/25 11:47:56;;;;;;;1.20;1.00;;;23.40;78.70;;;;;;5007633;28;20459;-46
2023/05/25 11:50:23;;;;;;;1.80;1.10;;;23.40;78.80;;;;;;5008980;28;20456;-47
2023/05/25 11:52:50;;;;;;;1.10;0.87;;;23.40;78.80;;;;;;5007133;28;20514;-46
2023/05/25 11:55:17;;;;;;;1.60;1.10;;;23.40;78.70;;;;;;5010538;28;20456;-46
2023/05/25 11:57:43;;;;;;;2.40;1.50;;;23.40;78.70;;;;;;5007089;28;20476;-47
2023/05/25 12:00:12;;;;;;;1.27;1.03;;;23.50;78.70;;;;;;5005647;28;20457;-46
2023/05/25 12:02:42;;;;;;;2.40;1.30;;;23.50;78.60;;;;;;5002839;28;20566;-43
2023/05/25 12:05:10;;;;;;;1.47;1.20;;;23.50;78.70;;;;;;5008054;28;20451;-43
2023/05/25 12:07:42;;;;;;;2.07;1.23;;;23.50;78.50;;;;;;5008453;28;20466;-45
2023/05/25 12:10:13;;;;;;;1.40;1.20;;;23.50;78.60;;;;;;5012336;28;20518;-44
2023/05/25 12:12:41;;;;;;;1.30;0.90;;;23.50;78.40;;;;;;5009197;28;20466;-43
2023/05/25 12:15:10;;;;;;;1.20;1.10;;;23.50;78.50;;;;;;4997010;28;21004;-48
2023/05/25 12:17:37;;;;;;;3.40;1.20;;;23.50;78.50;;;;;;5001749;28;20464;-45
2023/05/25 12:20:06;;;;;;;5.20;1.23;;;23.50;78.30;;;;;;5004720;28;20467;-50
2023/05/25 12:22:34;;;;;;;2.13;1.30;;;23.50;78.20;;;;;;5003634;28;20820;-45
2023/05/25 12:25:00;;;;;;;1.97;1.70;;;23.40;77.80;;;;;;5005843;28;20472;-45
2023/05/25 12:27:27;;;;;;;4.10;1.50;;;23.40;77.90;;;;;;5007856;28;20464;-46
2023/05/25 12:29:58;;;;;;;4.53;1.43;;;23.40;78.10;;;;;;5005585;28;20549;-48
2023/05/25 12:32:24;;;;;;;2.33;1.60;;;23.40;77.90;;;;;;5004008;28;20451;-46
2023/05/25 12:34:51;;;;;;;1.63;1.40;;;23.30;78.60;;;;;;5006224;28;20464;-46
2023/05/25 12:37:21;;;;;;;5.83;1.40;;;23.40;78.20;;;;;;5008416;28;20463;-47
2023/05/25 12:39:48;;;;;;;3.00;1.60;;;23.40;77.80;;;;;;5007584;28;20478;-47
2023/05/25 12:42:16;;;;;;;3.27;1.50;;;23.40;77.90;;;;;;5009052;28;20483;-46
2023/05/25 12:44:45;;;;;;;1.50;1.30;;;23.30;77.80;;;;;;4990977;28;20887;-49
2023/05/25 12:47:14;;;;;;;2.80;1.50;;;23.50;78.40;;;;;;4999985;28;20491;-49
2023/05/25 12:49:42;;;;;;;2.70;1.40;;;23.40;77.80;;;;;;5009543;28;20483;-50
2023/05/25 12:52:10;;;;;;;3.20;1.30;;;23.40;77.90;;;;;;5011090;28;20502;-52